Time;durP1;ratioP1;P1;durP2;ratioP2;P2;SDS_P1;SDS_P2;PMS_P1;PMS_P2;Temp;Humidity;BMP_temperature;BMP_pressure;BME280_temperature;BME280_humidity;BME280_pressure;Samples;Min_cycle;Max_cycle;Signal;HPM_P1;HPM_P2
2024/01/21 00:03:55;;;;;;;5.27;3.60;;;;;-0.30;101753.00;;;;9860716;29;20223;-82
2024/01/21 00:08:57;;;;;;;7.47;4.23;;;;;-0.30;101751.00;;;;9839763;29;20236;-83
2024/01/21 00:13:58;;;;;;;7.57;3.67;;;;;-0.30;101738.00;;;;9899094;29;20838;-83
2024/01/21 00:19:00;;;;;;;8.27;4.13;;;;;-0.30;101724.00;;;;9878970;29;20235;-81
2024/01/21 00:24:01;;;;;;;8.60;4.83;;;;;-0.20;101708.00;;;;9857012;29;20271;-80
2024/01/21 00:29:03;;;;;;;7.00;3.87;;;;;-0.10;101702.00;;;;9857385;29;20284;-81
2024/01/21 00:34:04;;;;;;;6.03;3.90;;;;;-0.10;101685.00;;;;9878409;29;20235;-80
2024/01/21 00:39:05;;;;;;;8.63;4.87;;;;;0.00;101691.00;;;;9885657;29;20318;-80
2024/01/21 00:44:08;;;;;;;7.20;4.77;;;;;-0.10;101669.00;;;;9885333;29;20231;-81
2024/01/21 00:49:09;;;;;;;6.70;3.17;;;;;0.00;101666.00;;;;9859683;29;20602;-81
2024/01/21 00:54:10;;;;;;;8.30;4.90;;;;;0.10;101646.00;;;;9875990;29;20318;-80
2024/01/21 00:59:11;;;;;;;7.77;4.00;;;;;0.20;101642.00;;;;9860580;29;20236;-82
2024/01/21 01:04:12;;;;;;;7.07;4.37;;;;;0.30;101632.00;;;;9875977;29;20232;-81
2024/01/21 01:09:14;;;;;;;9.83;5.23;;;;;0.40;101622.00;;;;9858470;29;20238;-80
2024/01/21 01:14:15;;;;;;;6.90;4.47;;;;;0.50;101621.00;;;;9885503;29;20239;-82
2024/01/21 01:19:16;;;;;;;10.67;5.60;;;;;0.50;101604.00;;;;9853994;29;20251;-81
2024/01/21 01:24:19;;;;;;;10.67;5.40;;;;;0.60;101587.00;;;;9871349;29;20293;-80
2024/01/21 01:29:20;;;;;;;8.73;5.13;;;;;0.60;101583.00;;;;9875248;29;20306;-80
2024/01/21 01:34:21;;;;;;;7.93;4.83;;;;;0.60;101583.00;;;;9855868;29;20243;-80
2024/01/21 01:39:23;;;;;;;9.37;5.93;;;;;0.70;101583.00;;;;9869126;29;20315;-80
2024/01/21 01:44:24;;;;;;;8.87;5.17;;;;;0.70;101578.00;;;;9859980;29;20338;-81
2024/01/21 01:49:26;;;;;;;12.13;5.73;;;;;0.70;101574.00;;;;9886205;29;20311;-79
2024/01/21 01:54:29;;;;;;;9.20;5.37;;;;;0.70;101575.00;;;;9865091;29;20255;-79
2024/01/21 01:59:33;;;;;;;8.90;4.87;;;;;0.80;101566.00;;;;9862203;29;20266;-79
2024/01/21 02:04:34;;;;;;;9.43;4.97;;;;;0.90;101566.00;;;;9887850;29;20747;-79
2024/01/21 02:09:35;;;;;;;10.73;5.93;;;;;0.90;101548.00;;;;9856419;29;20227;-80
2024/01/21 02:14:36;;;;;;;8.33;4.57;;;;;0.90;101545.00;;;;9872935;29;20252;-78
2024/01/21 02:19:38;;;;;;;8.83;5.23;;;;;0.90;101540.00;;;;9855492;29;20319;-79
2024/01/21 02:24:40;;;;;;;9.23;5.17;;;;;0.90;101530.00;;;;9866253;29;20236;-79
2024/01/21 02:29:41;;;;;;;8.53;4.63;;;;;0.90;101549.00;;;;9871152;29;20254;-80
2024/01/21 02:34:42;;;;;;;7.93;4.83;;;;;1.00;101538.00;;;;9866868;29;20275;-78
2024/01/21 02:39:43;;;;;;;7.07;4.87;;;;;1.00;101549.00;;;;9853772;29;20231;-79
2024/01/21 02:44:44;;;;;;;8.87;4.80;;;;;0.90;101550.00;;;;9884522;29;20687;-79
2024/01/21 02:49:46;;;;;;;9.40;4.63;;;;;1.00;101555.00;;;;9875007;29;20335;-78
2024/01/21 02:55:40;;;;;;;10.00;5.37;;;;;1.00;101541.00;;;;9825442;29;20289;-87
2024/01/21 03:08:31;;;;;;;6.93;4.00;;;;;1.10;101507.00;;;;10427198;24;20236;-88
2024/01/21 03:14:07;;;;;;;7.70;4.40;;;;;1.10;101493.00;;;;10103285;24;20272;-86
2024/01/21 03:27:57;;;;;;;7.97;4.20;;;;;1.10;101504.00;;;;9836024;29;20271;-87
2024/01/21 03:34:43;;;;;;;7.97;4.70;;;;;1.10;101513.00;;;;9648553;30;20295;-86
2024/01/21 03:42:19;;;;;;;5.23;3.17;;;;;1.10;101530.00;;;;9699880;30;20235;-85
2024/01/21 03:49:02;;;;;;;5.93;4.00;;;;;1.10;101532.00;;;;9809698;24;20243;-86
2024/01/21 03:55:46;;;;;;;6.90;4.53;;;;;1.10;101529.00;;;;9725773;29;20247;-87
2024/01/21 04:02:23;;;;;;;8.60;4.87;;;;;1.10;101532.00;;;;9831064;29;20684;-82
2024/01/21 04:07:24;;;;;;;8.27;4.70;;;;;1.10;101528.00;;;;9834561;29;20295;-83
2024/01/21 04:12:26;;;;;;;5.63;3.10;;;;;1.10;101507.00;;;;9826878;29;20271;-82
2024/01/21 04:17:27;;;;;;;8.10;5.50;;;;;1.20;101502.00;;;;9850586;29;20311;-81
2024/01/21 04:22:28;;;;;;;5.93;4.57;;;;;1.20;101473.00;;;;9850480;29;20231;-81
2024/01/21 04:27:29;;;;;;;4.77;3.80;;;;;1.20;101466.00;;;;9838304;29;20227;-82
2024/01/21 04:32:31;;;;;;;7.17;4.13;;;;;1.10;101443.00;;;;9847773;29;20331;-80
2024/01/21 04:37:32;;;;;;;10.87;4.63;;;;;1.10;101458.00;;;;9846135;29;20231;-82
2024/01/21 04:42:33;;;;;;;10.53;5.67;;;;;1.10;101463.00;;;;9828280;29;20239;-81
2024/01/21 04:47:34;;;;;;;9.27;5.10;;;;;1.10;101442.00;;;;9835492;29;20239;-81
2024/01/21 04:52:35;;;;;;;7.80;5.03;;;;;1.00;101451.00;;;;9857227;29;20242;-81
2024/01/21 04:57:36;;;;;;;7.80;4.33;;;;;1.00;101450.00;;;;9835135;29;20242;-82
2024/01/21 05:02:38;;;;;;;9.50;5.20;;;;;1.00;101407.00;;;;9846068;29;20231;-80
2024/01/21 05:07:39;;;;;;;6.73;4.60;;;;;0.90;101439.00;;;;9845109;29;20322;-80
2024/01/21 05:12:40;;;;;;;8.47;4.90;;;;;0.90;101453.00;;;;9856914;29;20329;-80
2024/01/21 05:17:41;;;;;;;9.53;5.43;;;;;0.80;101442.00;;;;9864696;29;20235;-80
2024/01/21 05:22:42;;;;;;;9.63;5.17;;;;;0.80;101445.00;;;;9840191;29;20244;-79
2024/01/21 05:27:43;;;;;;;8.27;5.73;;;;;0.80;101419.00;;;;9849544;29;20938;-79
2024/01/21 05:32:46;;;;;;;4.37;3.17;;;;;0.80;101416.00;;;;9844794;29;20235;-79
2024/01/21 05:37:47;;;;;;;10.13;6.43;;;;;0.90;101436.00;;;;9842706;29;20228;-79
2024/01/21 05:42:48;;;;;;;8.03;4.83;;;;;0.90;101421.00;;;;9855474;29;20238;-78
2024/01/21 05:47:49;;;;;;;6.90;4.20;;;;;0.90;101403.00;;;;9843272;29;20266;-78
2024/01/21 05:52:51;;;;;;;8.03;4.83;;;;;0.90;101442.00;;;;9848390;29;20240;-78
2024/01/21 05:57:52;;;;;;;8.13;4.90;;;;;0.90;101431.00;;;;9837831;29;20241;-79
2024/01/21 06:02:53;;;;;;;7.70;4.87;;;;;0.90;101417.00;;;;9869520;29;20231;-79
2024/01/21 06:07:54;;;;;;;6.13;4.37;;;;;1.00;101427.00;;;;9843035;29;20246;-79
2024/01/21 06:12:55;;;;;;;7.70;4.63;;;;;1.00;101438.00;;;;9850347;29;20849;-80
2024/01/21 06:17:56;;;;;;;8.70;4.33;;;;;1.00;101451.00;;;;9838520;29;20239;-79
2024/01/21 06:22:57;;;;;;;7.37;4.17;;;;;1.00;101439.00;;;;9851077;29;20282;-81
2024/01/21 06:27:59;;;;;;;7.63;4.03;;;;;1.10;101428.00;;;;9824570;29;20939;-81
2024/01/21 06:33:00;;;;;;;8.83;4.50;;;;;1.20;101427.00;;;;9845568;29;20242;-80
2024/01/21 06:38:04;;;;;;;6.03;3.63;;;;;1.30;101435.00;;;;9861169;29;20967;-81
2024/01/21 06:43:05;;;;;;;9.40;4.37;;;;;1.40;101432.00;;;;9842624;29;20246;-83
2024/01/21 06:48:06;;;;;;;6.73;4.13;;;;;1.40;101442.00;;;;9862124;29;20266;-81
2024/01/21 06:53:08;;;;;;;7.07;4.47;;;;;1.40;101437.00;;;;9846119;29;20470;-81
2024/01/21 06:58:10;;;;;;;5.33;3.03;;;;;1.40;101435.00;;;;9849760;29;21138;-82
2024/01/21 07:03:11;;;;;;;7.67;3.90;;;;;1.50;101381.00;;;;9860258;29;20254;-81
2024/01/21 07:08:12;;;;;;;5.77;3.90;;;;;1.60;101361.00;;;;9850946;29;20231;-81
2024/01/21 07:13:14;;;;;;;5.87;3.97;;;;;1.70;101363.00;;;;9860629;29;20242;-82
2024/01/21 07:18:15;;;;;;;5.40;3.77;;;;;1.80;101367.00;;;;9862904;29;20231;-82
2024/01/21 07:23:16;;;;;;;6.47;4.17;;;;;1.70;101365.00;;;;9849972;29;20280;-82
2024/01/21 07:28:17;;;;;;;5.80;3.53;;;;;1.70;101389.00;;;;9849462;29;20230;-82
2024/01/21 07:33:19;;;;;;;8.07;4.70;;;;;1.60;101425.00;;;;9856420;29;20265;-77
2024/01/21 07:38:20;;;;;;;8.97;6.00;;;;;1.60;101409.00;;;;9848314;29;20252;-79
2024/01/21 07:43:22;;;;;;;11.33;5.17;;;;;1.50;101411.00;;;;9847192;29;20326;-79
2024/01/21 07:48:23;;;;;;;7.57;5.00;;;;;1.60;101400.00;;;;9858744;29;20280;-78
2024/01/21 07:53:25;;;;;;;6.80;4.50;;;;;1.70;101419.00;;;;9848938;29;20743;-77
2024/01/21 07:58:26;;;;;;;5.20;3.83;;;;;1.70;101451.00;;;;9835188;29;20300;-78
2024/01/21 08:03:28;;;;;;;6.93;4.20;;;;;1.90;101468.00;;;;9860899;29;20266;-78
2024/01/21 08:08:29;;;;;;;10.00;3.53;;;;;2.10;101456.00;;;;9861849;29;20232;-78
2024/01/21 08:13:31;;;;;;;8.77;4.13;;;;;2.60;101468.00;;;;9829131;29;20722;-79
2024/01/21 08:18:32;;;;;;;6.67;4.70;;;;;2.80;101492.00;;;;9853757;29;20244;-80
2024/01/21 08:23:40;;;;;;;7.67;4.73;;;;;2.70;101490.00;;;;9841883;29;20231;-79
2024/01/21 08:28:43;;;;;;;6.07;3.63;;;;;2.60;101467.00;;;;9860861;29;20331;-77
2024/01/21 08:33:45;;;;;;;5.83;3.07;;;;;2.70;101486.00;;;;9841010;29;20251;-77
2024/01/21 08:38:46;;;;;;;8.30;5.30;;;;;2.80;101477.00;;;;9861779;29;20235;-78
2024/01/21 08:43:47;;;;;;;7.80;5.17;;;;;2.70;101467.00;;;;9870588;29;20231;-82
2024/01/21 08:48:48;;;;;;;7.60;5.00;;;;;2.60;101469.00;;;;9851630;29;20231;-84
2024/01/21 08:53:57;;;;;;;8.30;5.37;;;;;2.70;101474.00;;;;9845253;29;20240;-83
2024/01/21 08:58:59;;;;;;;7.17;4.63;;;;;2.80;101479.00;;;;9828488;29;20235;-84
2024/01/21 09:04:02;;;;;;;10.67;5.47;;;;;3.10;101484.00;;;;9856054;29;20232;-86
2024/01/21 09:09:06;;;;;;;11.20;5.17;;;;;3.30;101488.00;;;;9853196;29;20239;-86
2024/01/21 09:14:07;;;;;;;8.50;4.57;;;;;3.40;101504.00;;;;9862079;29;20234;-88
2024/01/21 09:25:15;;;;;;;9.93;5.27;;;;;3.50;101511.00;;;;11552532;24;21119;-88
2024/01/21 09:48:27;;;;;;;5.80;3.50;;;;;4.40;101525.00;;;;10771390;24;20250;-86
2024/01/21 09:53:29;;;;;;;6.63;3.90;;;;;4.50;101530.00;;;;9877238;29;20245;-77
2024/01/21 09:58:33;;;;;;;8.93;4.37;;;;;4.60;101531.00;;;;9881669;29;20871;-77
2024/01/21 10:03:35;;;;;;;7.60;4.07;;;;;5.00;101531.00;;;;9877518;29;20246;-77
2024/01/21 10:08:38;;;;;;;10.10;4.30;;;;;5.10;101527.00;;;;9886199;29;20928;-79
2024/01/21 10:13:39;;;;;;;7.17;4.20;;;;;5.20;101507.00;;;;9891550;29;20271;-78
2024/01/21 10:18:47;;;;;;;7.63;4.67;;;;;5.40;101511.00;;;;9892243;29;20234;-77
2024/01/21 10:23:49;;;;;;;5.80;4.47;;;;;5.60;101503.00;;;;9899785;29;20230;-77
2024/01/21 10:46:08;;;;;;;5.30;3.90;;;;;5.70;101467.00;;;;10535281;27;20401;-77
2024/01/21 10:51:09;;;;;;;8.80;5.60;;;;;5.80;101458.00;;;;10483394;27;20279;-78
2024/01/21 10:56:11;;;;;;;8.13;4.80;;;;;6.00;101475.00;;;;10504539;28;20216;-80
2024/01/21 11:01:13;;;;;;;5.00;3.63;;;;;6.00;101472.00;;;;10488837;28;20320;-79
2024/01/21 11:06:16;;;;;;;9.10;4.93;;;;;6.00;101458.00;;;;10454459;28;20645;-80
2024/01/21 11:11:21;;;;;;;6.47;5.20;;;;;6.10;101448.00;;;;10474720;28;20232;-78
2024/01/21 11:16:31;;;;;;;6.47;4.37;;;;;6.20;101445.00;;;;10470543;28;20229;-77
2024/01/21 11:21:36;;;;;;;6.97;5.50;;;;;6.30;101467.00;;;;10478497;28;20991;-77
2024/01/21 11:26:43;;;;;;;7.67;5.27;;;;;6.30;101453.00;;;;10483328;27;20213;-79
2024/01/21 11:31:48;;;;;;;6.77;4.73;;;;;6.20;101459.00;;;;10483928;28;20225;-78
2024/01/21 11:36:50;;;;;;;8.67;4.90;;;;;6.60;101481.00;;;;10479638;27;20225;-77
2024/01/21 11:41:51;;;;;;;8.57;5.47;;;;;6.80;101485.00;;;;10467788;28;20213;-78
2024/01/21 11:46:55;;;;;;;5.80;4.10;;;;;6.80;101498.00;;;;10496995;28;20293;-77
2024/01/21 11:51:57;;;;;;;9.43;5.60;;;;;6.80;101482.00;;;;10466087;27;20317;-78
2024/01/21 11:57:00;;;;;;;8.20;5.43;;;;;6.80;101501.00;;;;10451911;28;20666;-77
2024/01/21 12:02:04;;;;;;;5.87;4.10;;;;;6.40;101505.00;;;;10457294;28;20275;-77
2024/01/21 12:07:08;;;;;;;8.20;5.47;;;;;6.30;101492.00;;;;10457914;28;20644;-80
2024/01/21 12:12:09;;;;;;;11.00;5.90;;;;;6.40;101501.00;;;;10470391;28;20241;-78
2024/01/21 12:17:10;;;;;;;6.60;5.03;;;;;6.50;101482.00;;;;10458342;28;20229;-77
2024/01/21 12:22:12;;;;;;;9.17;5.40;;;;;6.60;101467.00;;;;10449383;28;20263;-80
2024/01/21 12:27:13;;;;;;;8.80;6.00;;;;;6.60;101478.00;;;;10475083;28;20747;-79
2024/01/21 12:32:16;;;;;;;8.70;5.70;;;;;6.40;101472.00;;;;10459796;28;20222;-79
2024/01/21 12:37:17;;;;;;;9.80;5.50;;;;;6.30;101467.00;;;;10447181;28;20232;-80
2024/01/21 12:42:18;;;;;;;9.40;4.83;;;;;6.30;101507.00;;;;10463949;28;20636;-77
2024/01/21 12:47:19;;;;;;;11.17;5.30;;;;;6.40;101527.00;;;;10447716;28;20245;-80
2024/01/21 12:52:20;;;;;;;6.23;3.97;;;;;6.50;101524.00;;;;10447226;28;20303;-79
2024/01/21 12:57:21;;;;;;;9.40;5.30;;;;;6.30;101530.00;;;;10447706;28;20229;-77
2024/01/21 13:02:24;;;;;;;6.57;5.00;;;;;6.20;101532.00;;;;10454280;28;20231;-78
2024/01/21 13:07:25;;;;;;;7.60;5.90;;;;;6.10;101526.00;;;;10468766;28;20872;-78
2024/01/21 13:12:27;;;;;;;12.23;7.27;;;;;5.90;101530.00;;;;10441363;28;20225;-77
2024/01/21 13:17:28;;;;;;;10.83;5.53;;;;;5.80;101518.00;;;;10451582;28;20682;-78
2024/01/21 13:22:29;;;;;;;8.40;5.47;;;;;5.70;101509.00;;;;10472697;28;20222;-85
2024/01/21 13:27:40;;;;;;;11.07;6.23;;;;;5.70;101508.00;;;;10420671;28;20649;-86
2024/01/21 13:32:43;;;;;;;7.53;5.67;;;;;5.70;101483.00;;;;10431187;28;20253;-84
2024/01/21 13:37:45;;;;;;;11.70;7.33;;;;;5.70;101474.00;;;;10443977;28;20248;-84
2024/01/21 13:42:47;;;;;;;11.40;7.97;;;;;5.80;101480.00;;;;10460382;28;20232;-84
2024/01/21 13:47:48;;;;;;;9.47;6.47;;;;;5.70;101472.00;;;;10443497;28;20795;-84
2024/01/21 13:52:49;;;;;;;7.37;5.53;;;;;5.60;101482.00;;;;10445726;28;20217;-84
2024/01/21 13:57:50;;;;;;;14.07;7.17;;;;;5.50;101466.00;;;;10444476;28;20212;-83
2024/01/21 14:02:56;;;;;;;10.73;5.60;;;;;5.40;101448.00;;;;10445901;28;20217;-82
2024/01/21 14:07:57;;;;;;;10.33;6.17;;;;;5.30;101452.00;;;;10461103;28;20213;-83
2024/01/21 14:12:58;;;;;;;11.17;6.43;;;;;5.40;101446.00;;;;10458430;28;20218;-83
2024/01/21 14:18:04;;;;;;;7.17;4.40;;;;;5.40;101446.00;;;;10459591;28;20221;-83
2024/01/21 14:23:05;;;;;;;11.60;6.63;;;;;5.50;101444.00;;;;10454674;28;20225;-84
2024/01/21 14:28:06;;;;;;;9.50;6.90;;;;;5.50;101460.00;;;;10448542;28;20757;-84
2024/01/21 14:33:07;;;;;;;12.30;7.07;;;;;5.50;101454.00;;;;10456305;28;20248;-82
2024/01/21 14:38:10;;;;;;;10.37;6.90;;;;;5.40;101464.00;;;;10437386;28;20316;-81
2024/01/21 14:43:12;;;;;;;9.17;6.07;;;;;5.30;101452.00;;;;10435425;28;20237;-82
2024/01/21 14:48:13;;;;;;;12.20;7.07;;;;;5.30;101432.00;;;;10457093;28;20242;-81
2024/01/21 14:53:14;;;;;;;9.33;6.13;;;;;5.30;101414.00;;;;10453120;28;20214;-81
2024/01/21 14:58:15;;;;;;;12.57;6.77;;;;;5.40;101398.00;;;;10435994;28;20224;-81
2024/01/21 15:03:16;;;;;;;12.43;7.23;;;;;5.30;101388.00;;;;10469161;28;20217;-81
2024/01/21 15:08:18;;;;;;;11.53;7.10;;;;;5.20;101344.00;;;;10439329;28;20221;-80
2024/01/21 15:13:23;;;;;;;9.73;6.60;;;;;5.10;101386.00;;;;10449680;28;20811;-81
2024/01/21 15:18:28;;;;;;;9.60;4.70;;;;;5.00;101382.00;;;;10449617;28;20214;-80
2024/01/21 15:23:35;;;;;;;13.20;7.33;;;;;4.90;101365.00;;;;10459607;28;20237;-83
2024/01/21 15:28:37;;;;;;;11.03;7.03;;;;;4.80;101383.00;;;;10439277;28;20224;-81
2024/01/21 15:33:38;;;;;;;11.33;6.43;;;;;4.80;101369.00;;;;10443265;28;20237;-80
2024/01/21 15:38:40;;;;;;;11.67;5.27;;;;;4.80;101359.00;;;;10456433;28;20210;-81
2024/01/21 15:43:41;;;;;;;12.17;5.97;;;;;4.70;101352.00;;;;10457016;28;20805;-82
2024/01/21 15:48:42;;;;;;;10.70;6.57;;;;;4.80;101322.00;;;;10474020;28;20224;-82
2024/01/21 15:53:44;;;;;;;9.53;5.03;;;;;4.80;101315.00;;;;10448855;28;20217;-83
2024/01/21 15:58:45;;;;;;;11.43;6.93;;;;;4.80;101307.00;;;;10456917;28;20308;-82
2024/01/21 16:03:46;;;;;;;8.57;6.30;;;;;4.80;101332.00;;;;10458964;28;20949;-82
2024/01/21 16:08:48;;;;;;;9.87;6.00;;;;;4.80;101303.00;;;;10445592;28;20327;-83
2024/01/21 16:13:50;;;;;;;9.77;4.50;;;;;4.80;101272.00;;;;10438322;28;20236;-82
2024/01/21 16:18:51;;;;;;;13.47;7.20;;;;;4.80;101262.00;;;;10459591;28;20214;-82
2024/01/21 16:23:53;;;;;;;9.57;5.97;;;;;4.80;101266.00;;;;10439477;28;20385;-83
2024/01/21 16:28:54;;;;;;;13.10;6.93;;;;;4.70;101270.00;;;;10455150;28;20586;-83
2024/01/21 16:33:55;;;;;;;12.40;6.43;;;;;4.80;101260.00;;;;10475455;28;20209;-83
2024/01/21 16:38:57;;;;;;;17.27;6.57;;;;;4.80;101242.00;;;;10435087;28;20275;-82
2024/01/21 16:44:01;;;;;;;10.30;5.47;;;;;4.80;101225.00;;;;10467190;28;20218;-83
2024/01/21 16:49:02;;;;;;;9.57;5.83;;;;;4.80;101228.00;;;;10440652;27;20310;-83
2024/01/21 16:54:03;;;;;;;9.33;5.37;;;;;4.90;101222.00;;;;10454146;28;20225;-75
2024/01/21 16:59:05;;;;;;;11.87;6.13;;;;;4.90;101232.00;;;;10444257;28;20279;-76
2024/01/21 17:04:07;;;;;;;12.30;5.97;;;;;4.80;101226.00;;;;10469778;28;20244;-77
2024/01/21 17:09:09;;;;;;;9.93;5.27;;;;;4.80;101244.00;;;;10468537;28;20213;-76
2024/01/21 17:14:11;;;;;;;9.40;5.13;;;;;4.80;101225.00;;;;10429944;28;20300;-76
2024/01/21 17:19:14;;;;;;;8.00;5.00;;;;;4.80;101228.00;;;;10449097;28;20309;-77
2024/01/21 17:24:15;;;;;;;10.97;6.83;;;;;4.80;101245.00;;;;10454193;28;20221;-76
2024/01/21 17:29:16;;;;;;;9.63;5.90;;;;;4.80;101250.00;;;;10452460;28;20257;-77
2024/01/21 17:34:18;;;;;;;9.40;4.20;;;;;4.90;101239.00;;;;10465399;28;20215;-76
2024/01/21 17:39:20;;;;;;;10.57;6.13;;;;;4.90;101252.00;;;;10436509;28;20238;-77
2024/01/21 17:44:21;;;;;;;11.40;6.70;;;;;4.90;101262.00;;;;10446647;28;20639;-76
2024/01/21 17:49:22;;;;;;;10.40;5.40;;;;;5.00;101248.00;;;;10433683;28;20231;-75
2024/01/21 17:54:23;;;;;;;14.00;5.73;;;;;5.00;101250.00;;;;10434257;28;20217;-76
2024/01/21 17:59:25;;;;;;;10.93;6.00;;;;;5.00;101260.00;;;;10444447;28;20216;-76
2024/01/21 18:04:26;;;;;;;10.27;5.53;;;;;5.00;101257.00;;;;10446256;28;20312;-79
2024/01/21 18:09:27;;;;;;;8.33;3.50;;;;;5.00;101255.00;;;;10455524;28;20229;-78
2024/01/21 18:14:28;;;;;;;12.70;5.77;;;;;5.00;101258.00;;;;10446145;28;20255;-77
2024/01/21 18:19:30;;;;;;;9.77;4.70;;;;;5.00;101257.00;;;;10452682;28;20213;-79
2024/01/21 18:24:32;;;;;;;5.73;3.53;;;;;5.10;101275.00;;;;10465356;28;20210;-78
2024/01/21 18:29:33;;;;;;;8.87;4.97;;;;;5.20;101266.00;;;;10428026;28;20224;-77
2024/01/21 18:34:35;;;;;;;13.90;5.47;;;;;5.50;101275.00;;;;10447825;28;20859;-79
2024/01/21 18:39:37;;;;;;;10.97;4.80;;;;;5.60;101284.00;;;;10438745;28;20249;-78
2024/01/21 18:44:38;;;;;;;13.27;6.10;;;;;5.70;101277.00;;;;10468238;28;20252;-77
2024/01/21 18:49:39;;;;;;;13.67;5.53;;;;;5.80;101261.00;;;;10443177;28;20213;-77
2024/01/21 18:54:41;;;;;;;10.27;5.70;;;;;5.90;101235.00;;;;10454820;28;20213;-76
2024/01/21 18:59:45;;;;;;;16.50;5.53;;;;;5.90;101219.00;;;;10445464;28;20231;-76
2024/01/21 19:04:46;;;;;;;12.77;6.07;;;;;6.00;101201.00;;;;10472408;28;20320;-76
2024/01/21 19:09:51;;;;;;;6.70;3.30;;;;;6.10;101184.00;;;;10473042;28;20271;-76
2024/01/21 19:14:52;;;;;;;7.43;3.83;;;;;6.20;101176.00;;;;10451437;28;20730;-79
2024/01/21 19:19:55;;;;;;;10.70;5.27;;;;;6.20;101176.00;;;;10429432;28;20213;-80
2024/01/21 19:24:57;;;;;;;4.53;2.87;;;;;6.30;101155.00;;;;10433328;28;20222;-80
2024/01/21 19:29:58;;;;;;;14.60;5.00;;;;;6.30;101137.00;;;;10409506;28;20252;-79
2024/01/21 19:34:59;;;;;;;10.73;4.57;;;;;6.40;101128.00;;;;10413549;28;20917;-80
2024/01/21 19:40:01;;;;;;;7.33;3.63;;;;;6.40;101116.00;;;;10434359;28;20233;-80
2024/01/21 19:45:03;;;;;;;9.37;4.17;;;;;6.50;101095.00;;;;10444165;28;20225;-80
2024/01/21 19:50:04;;;;;;;9.13;3.93;;;;;6.50;101088.00;;;;10428092;28;20253;-79
2024/01/21 19:55:06;;;;;;;9.67;3.93;;;;;6.60;101100.00;;;;10425418;28;20296;-79
2024/01/21 20:00:08;;;;;;;5.33;2.80;;;;;6.60;101054.00;;;;10425388;28;20214;-80
2024/01/21 20:05:12;;;;;;;8.30;4.60;;;;;6.70;101014.00;;;;10440949;28;20237;-80
2024/01/21 20:10:13;;;;;;;3.93;2.80;;;;;6.80;101051.00;;;;10444333;28;20217;-81
2024/01/21 20:15:15;;;;;;;6.73;3.70;;;;;6.80;101023.00;;;;10448899;28;20248;-79
2024/01/21 20:20:16;;;;;;;6.03;4.07;;;;;6.90;101020.00;;;;10440601;28;20245;-79
2024/01/21 20:25:17;;;;;;;7.17;3.33;;;;;6.90;101017.00;;;;10456420;28;20259;-80
2024/01/21 20:30:18;;;;;;;8.43;4.80;;;;;7.00;101011.00;;;;10452793;28;20266;-81
2024/01/21 20:35:20;;;;;;;10.10;3.20;;;;;7.00;100994.00;;;;10440827;28;20252;-80
2024/01/21 20:40:21;;;;;;;9.10;3.63;;;;;7.20;101037.00;;;;10439863;28;20229;-83
2024/01/21 20:45:22;;;;;;;8.63;4.50;;;;;7.20;101012.00;;;;10464534;28;20313;-82
2024/01/21 20:50:23;;;;;;;7.43;4.37;;;;;7.20;100993.00;;;;10437306;28;20221;-83
2024/01/21 20:55:34;;;;;;;9.60;4.27;;;;;7.30;100974.00;;;;10441499;28;20232;-81
2024/01/21 21:00:35;;;;;;;8.43;5.00;;;;;7.40;100963.00;;;;10444698;28;20218;-81
2024/01/21 21:05:37;;;;;;;9.20;3.90;;;;;7.50;100950.00;;;;10441795;28;20273;-81
2024/01/21 21:10:40;;;;;;;9.03;4.57;;;;;7.50;100909.00;;;;10436053;28;20224;-82
2024/01/21 21:15:41;;;;;;;7.33;3.33;;;;;7.60;100898.00;;;;10412040;28;20220;-81
2024/01/21 21:20:43;;;;;;;6.43;4.03;;;;;7.60;100909.00;;;;10438180;28;20245;-81
2024/01/21 21:25:45;;;;;;;3.53;2.70;;;;;7.70;100889.00;;;;10433287;28;20226;-83
2024/01/21 21:30:46;;;;;;;7.77;3.57;;;;;7.80;100903.00;;;;10434626;28;20252;-79
2024/01/21 21:35:49;;;;;;;7.77;3.53;;;;;7.80;100904.00;;;;10458790;28;20217;-77
2024/01/21 21:40:52;;;;;;;8.53;4.33;;;;;7.90;100882.00;;;;10437088;28;20662;-76
2024/01/21 21:45:53;;;;;;;6.00;3.50;;;;;7.90;100869.00;;;;10457170;28;20731;-78
2024/01/21 21:50:54;;;;;;;6.77;4.57;;;;;8.00;100834.00;;;;10444479;27;20225;-76
2024/01/21 21:55:56;;;;;;;4.70;2.57;;;;;8.10;100855.00;;;;10444494;28;20590;-78
2024/01/21 22:00:59;;;;;;;7.63;3.50;;;;;8.20;100814.00;;;;10458356;28;20813;-79
2024/01/21 22:06:02;;;;;;;9.10;3.97;;;;;8.30;100813.00;;;;10451896;28;20217;-77
2024/01/21 22:11:04;;;;;;;8.10;3.97;;;;;8.40;100795.00;;;;10442086;27;20630;-77
2024/01/21 22:16:08;;;;;;;8.17;4.63;;;;;8.40;100771.00;;;;10461400;28;20232;-77
2024/01/21 22:21:17;;;;;;;7.10;3.70;;;;;8.40;100784.00;;;;10463782;28;20684;-76
2024/01/21 22:26:18;;;;;;;6.03;2.60;;;;;8.50;100774.00;;;;10420514;28;20232;-76
2024/01/21 22:31:19;;;;;;;7.97;3.90;;;;;8.50;100764.00;;;;10399602;28;20225;-77
2024/01/21 22:36:20;;;;;;;8.73;4.20;;;;;8.60;100722.00;;;;10410829;28;22089;-77
2024/01/21 22:47:27;;;;;;;7.83;3.50;;;;;8.70;100673.00;;;;9869970;24;20771;-82
2024/01/21 22:52:29;;;;;;;3.97;2.73;;;;;8.80;100658.00;;;;9782536;29;20232;-80
2024/01/21 22:57:30;;;;;;;4.93;3.03;;;;;8.80;100639.00;;;;9780634;30;20299;-82
2024/01/21 23:02:31;;;;;;;5.47;3.30;;;;;8.90;100634.00;;;;9766049;30;20229;-80
2024/01/21 23:07:32;;;;;;;5.17;2.87;;;;;8.90;100634.00;;;;9791498;30;20418;-83
2024/01/21 23:12:37;;;;;;;5.93;2.93;;;;;8.90;100624.00;;;;9779701;30;20934;-81
2024/01/21 23:17:38;;;;;;;7.77;4.70;;;;;9.00;100634.00;;;;9773370;30;20297;-82
2024/01/21 23:22:39;;;;;;;5.57;2.73;;;;;8.90;100614.00;;;;9798576;30;20232;-82
2024/01/21 23:27:41;;;;;;;6.83;2.83;;;;;8.90;100590.00;;;;9782435;30;20236;-83
2024/01/21 23:32:42;;;;;;;7.10;3.40;;;;;8.90;100575.00;;;;9781694;30;20735;-81
2024/01/21 23:37:43;;;;;;;7.27;3.10;;;;;8.90;100554.00;;;;9784907;29;20232;-81
2024/01/21 23:42:44;;;;;;;8.03;3.37;;;;;9.00;100534.00;;;;9787689;30;20236;-81
2024/01/21 23:47:45;;;;;;;4.93;3.33;;;;;9.00;100520.00;;;;9799813;29;20229;-83
2024/01/21 23:52:47;;;;;;;5.50;3.50;;;;;9.10;100496.00;;;;9804219;30;20237;-81
2024/01/21 23:57:48;;;;;;;3.60;2.00;;;;;9.10;100497.00;;;;9807359;30;20225;-82
